sensor_id;sensor_type;location;lat;lon;timestamp;pressure;altitude;pressure_sealevel;temperature;humidity
57900;BME280;60605;53.716;19.940;2023-05-19T00:00:39;101661.05;;;9.02;68.53
57900;BME280;60605;53.716;19.940;2023-05-19T00:05:53;101662.19;;;9.01;68.72
57900;BME280;60605;53.716;19.940;2023-05-19T00:10:58;101665.48;;;9.00;69.10
57900;BME280;60605;53.716;19.940;2023-05-19T00:16:01;101665.11;;;9.00;69.66
57900;BME280;60605;53.716;19.940;2023-05-19T00:21:05;101662.98;;;9.00;69.80
57900;BME280;60605;53.716;19.940;2023-05-19T00:26:08;101658.80;;;8.98;70.00
57900;BME280;60605;53.716;19.940;2023-05-19T00:31:12;101653.59;;;8.96;70.38
57900;BME280;60605;53.716;19.940;2023-05-19T00:36:15;101654.94;;;8.95;70.66
57900;BME280;60605;53.716;19.940;2023-05-19T00:41:19;101650.20;;;8.93;71.06
57900;BME280;60605;53.716;19.940;2023-05-19T00:46:23;101646.98;;;8.94;71.22
57900;BME280;60605;53.716;19.940;2023-05-19T00:51:27;101641.47;;;8.93;71.57
57900;BME280;60605;53.716;19.940;2023-05-19T00:56:31;101641.39;;;8.95;71.84
57900;BME280;60605;53.716;19.940;2023-05-19T01:01:35;101636.20;;;8.95;72.09
57900;BME280;60605;53.716;19.940;2023-05-19T01:06:40;101632.16;;;8.97;72.61
57900;BME280;60605;53.716;19.940;2023-05-19T01:11:44;101633.46;;;8.99;72.71
57900;BME280;60605;53.716;19.940;2023-05-19T01:17:22;101634.63;;;9.00;73.04
57900;BME280;60605;53.716;19.940;2023-05-19T01:22:43;101633.50;;;9.01;73.29
57900;BME280;60605;53.716;19.940;2023-05-19T01:33:58;101635.41;;;9.04;73.67
57900;BME280;60605;53.716;19.940;2023-05-19T01:39:02;101632.98;;;9.05;74.06
57900;BME280;60605;53.716;19.940;2023-05-19T01:44:06;101628.94;;;9.07;74.17
57900;BME280;60605;53.716;19.940;2023-05-19T01:49:10;101625.95;;;9.09;74.53
57900;BME280;60605;53.716;19.940;2023-05-19T01:54:14;101624.91;;;9.11;74.72
57900;BME280;60605;53.716;19.940;2023-05-19T01:59:26;101626.93;;;9.13;74.70
57900;BME280;60605;53.716;19.940;2023-05-19T02:05:08;101627.89;;;9.14;74.97
57900;BME280;60605;53.716;19.940;2023-05-19T02:10:27;101630.34;;;9.17;75.28
57900;BME280;60605;53.716;19.940;2023-05-19T02:15:40;101631.36;;;9.20;75.49
57900;BME280;60605;53.716;19.940;2023-05-19T02:20:44;101631.72;;;9.23;75.70
57900;BME280;60605;53.716;19.940;2023-05-19T02:25:47;101632.75;;;9.23;76.02
57900;BME280;60605;53.716;19.940;2023-05-19T02:30:50;101637.54;;;9.24;76.20
57900;BME280;60605;53.716;19.940;2023-05-19T02:35:54;101641.59;;;9.22;76.37
57900;BME280;60605;53.716;19.940;2023-05-19T02:40:58;101641.70;;;9.18;76.67
57900;BME280;60605;53.716;19.940;2023-05-19T02:46:01;101641.27;;;9.14;76.85
57900;BME280;60605;53.716;19.940;2023-05-19T02:51:04;101637.66;;;9.07;77.07
57900;BME280;60605;53.716;19.940;2023-05-19T02:56:07;101636.27;;;9.02;77.34
57900;BME280;60605;53.716;19.940;2023-05-19T03:01:11;101638.23;;;8.99;77.54
57900;BME280;60605;53.716;19.940;2023-05-19T03:06:14;101636.11;;;8.99;77.92
57900;BME280;60605;53.716;19.940;2023-05-19T03:11:19;101634.74;;;9.01;78.05
57900;BME280;60605;53.716;19.940;2023-05-19T03:16:23;101637.44;;;9.03;78.20
57900;BME280;60605;53.716;19.940;2023-05-19T03:21:26;101637.98;;;9.05;78.38
57900;BME280;60605;53.716;19.940;2023-05-19T03:26:29;101639.31;;;9.09;78.58
57900;BME280;60605;53.716;19.940;2023-05-19T03:31:32;101641.52;;;9.16;78.73
57900;BME280;60605;53.716;19.940;2023-05-19T03:36:36;101643.45;;;9.23;78.75
57900;BME280;60605;53.716;19.940;2023-05-19T03:41:42;101642.21;;;9.33;78.51
57900;BME280;60605;53.716;19.940;2023-05-19T03:46:45;101638.84;;;9.44;78.38
57900;BME280;60605;53.716;19.940;2023-05-19T03:51:48;101632.59;;;9.56;78.08
57900;BME280;60605;53.716;19.940;2023-05-19T03:56:52;101636.21;;;9.68;77.62
57900;BME280;60605;53.716;19.940;2023-05-19T04:01:55;101636.74;;;9.77;77.37
57900;BME280;60605;53.716;19.940;2023-05-19T04:06:59;101641.51;;;9.85;76.97
57900;BME280;60605;53.716;19.940;2023-05-19T04:12:03;101641.08;;;9.91;76.95
57900;BME280;60605;53.716;19.940;2023-05-19T04:17:07;101640.86;;;9.96;76.69
57900;BME280;60605;53.716;19.940;2023-05-19T04:22:11;101639.83;;;10.02;76.65
57900;BME280;60605;53.716;19.940;2023-05-19T04:27:14;101642.19;;;10.11;76.45
57900;BME280;60605;53.716;19.940;2023-05-19T04:32:17;101644.20;;;10.18;76.13
57900;BME280;60605;53.716;19.940;2023-05-19T04:37:21;101647.23;;;10.23;75.90
57900;BME280;60605;53.716;19.940;2023-05-19T04:42:24;101647.65;;;10.29;75.84
57900;BME280;60605;53.716;19.940;2023-05-19T04:47:28;101650.23;;;10.37;75.86
57900;BME280;60605;53.716;19.940;2023-05-19T04:52:32;101654.55;;;10.48;75.85
57900;BME280;60605;53.716;19.940;2023-05-19T04:57:36;101656.09;;;10.60;75.76
57900;BME280;60605;53.716;19.940;2023-05-19T05:02:39;101662.31;;;10.75;75.53
57900;BME280;60605;53.716;19.940;2023-05-19T05:07:44;101665.33;;;10.88;75.04
57900;BME280;60605;53.716;19.940;2023-05-19T05:12:49;101672.09;;;11.00;74.58
57900;BME280;60605;53.716;19.940;2023-05-19T05:17:52;101672.85;;;11.15;74.14
57900;BME280;60605;53.716;19.940;2023-05-19T05:22:56;101661.42;;;11.28;73.75
57900;BME280;60605;53.716;19.940;2023-05-19T05:27:59;101657.48;;;11.41;73.29
57900;BME280;60605;53.716;19.940;2023-05-19T05:33:07;101656.46;;;11.51;72.55
57900;BME280;60605;53.716;19.940;2023-05-19T05:38:11;101656.41;;;11.65;72.43
57900;BME280;60605;53.716;19.940;2023-05-19T05:43:15;101661.32;;;11.85;71.98
57900;BME280;60605;53.716;19.940;2023-05-19T05:48:18;101663.08;;;12.01;71.39
57900;BME280;60605;53.716;19.940;2023-05-19T05:53:23;101659.98;;;12.23;71.28
57900;BME280;60605;53.716;19.940;2023-05-19T05:58:27;101660.88;;;12.48;70.36
57900;BME280;60605;53.716;19.940;2023-05-19T06:03:31;101659.27;;;12.66;69.62
57900;BME280;60605;53.716;19.940;2023-05-19T06:08:35;101667.10;;;12.85;69.53
57900;BME280;60605;53.716;19.940;2023-05-19T06:13:38;101666.52;;;12.96;68.74
57900;BME280;60605;53.716;19.940;2023-05-19T06:18:45;101670.14;;;12.96;68.23
57900;BME280;60605;53.716;19.940;2023-05-19T06:23:48;101674.61;;;13.04;68.55
57900;BME280;60605;53.716;19.940;2023-05-19T06:28:51;101669.77;;;13.22;68.10
57900;BME280;60605;53.716;19.940;2023-05-19T06:33:54;101671.48;;;13.37;67.62
57900;BME280;60605;53.716;19.940;2023-05-19T06:38:58;101672.02;;;13.53;66.77
57900;BME280;60605;53.716;19.940;2023-05-19T06:44:06;101674.02;;;13.72;66.49
57900;BME280;60605;53.716;19.940;2023-05-19T06:49:12;101671.11;;;14.02;65.91
57900;BME280;60605;53.716;19.940;2023-05-19T06:54:16;101673.20;;;14.32;64.81
57900;BME280;60605;53.716;19.940;2023-05-19T06:59:19;101677.31;;;14.60;63.81
57900;BME280;60605;53.716;19.940;2023-05-19T07:04:24;101678.63;;;14.81;63.45
57900;BME280;60605;53.716;19.940;2023-05-19T07:09:27;101682.27;;;15.06;62.39
57900;BME280;60605;53.716;19.940;2023-05-19T07:14:30;101682.07;;;15.23;61.48
57900;BME280;60605;53.716;19.940;2023-05-19T07:19:34;101678.92;;;15.51;61.22
57900;BME280;60605;53.716;19.940;2023-05-19T07:24:37;101684.23;;;15.81;60.08
57900;BME280;60605;53.716;19.940;2023-05-19T07:29:40;101691.14;;;16.06;58.73
57900;BME280;60605;53.716;19.940;2023-05-19T07:34:44;101693.48;;;16.13;58.44
57900;BME280;60605;53.716;19.940;2023-05-19T07:39:47;101690.57;;;16.29;57.90
57900;BME280;60605;53.716;19.940;2023-05-19T07:44:50;101694.03;;;16.18;56.60
57900;BME280;60605;53.716;19.940;2023-05-19T07:49:54;101697.56;;;16.01;56.93
57900;BME280;60605;53.716;19.940;2023-05-19T07:54:58;101700.13;;;15.90;57.16
57900;BME280;60605;53.716;19.940;2023-05-19T08:00:02;101703.36;;;15.90;58.58
57900;BME280;60605;53.716;19.940;2023-05-19T08:05:09;101701.38;;;16.19;59.18
57900;BME280;60605;53.716;19.940;2023-05-19T08:10:13;101700.17;;;16.45;57.93
57900;BME280;60605;53.716;19.940;2023-05-19T08:15:17;101700.06;;;16.65;57.21
57900;BME280;60605;53.716;19.940;2023-05-19T08:20:21;101698.48;;;16.66;56.40
57900;BME280;60605;53.716;19.940;2023-05-19T08:25:25;101691.73;;;16.71;56.44
57900;BME280;60605;53.716;19.940;2023-05-19T08:30:28;101691.91;;;16.83;56.15
57900;BME280;60605;53.716;19.940;2023-05-19T08:35:31;101692.92;;;16.85;56.18
57900;BME280;60605;53.716;19.940;2023-05-19T08:40:36;101694.19;;;16.71;56.25
57900;BME280;60605;53.716;19.940;2023-05-19T08:45:43;101692.45;;;16.58;56.37
57900;BME280;60605;53.716;19.940;2023-05-19T08:56:35;101691.16;;;16.64;56.26
57900;BME280;60605;53.716;19.940;2023-05-19T09:01:43;101691.38;;;16.65;56.28
57900;BME280;60605;53.716;19.940;2023-05-19T09:06:47;101690.77;;;16.62;55.02
57900;BME280;60605;53.716;19.940;2023-05-19T09:11:52;101694.00;;;16.80;55.49
57900;BME280;60605;53.716;19.940;2023-05-19T09:16:55;101695.11;;;17.12;54.45
57900;BME280;60605;53.716;19.940;2023-05-19T09:21:59;101692.36;;;17.21;53.55
57900;BME280;60605;53.716;19.940;2023-05-19T09:27:05;101696.42;;;17.28;53.57
57900;BME280;60605;53.716;19.940;2023-05-19T09:32:09;101690.04;;;17.36;53.70
57900;BME280;60605;53.716;19.940;2023-05-19T09:37:12;101690.21;;;17.37;52.29
57900;BME280;60605;53.716;19.940;2023-05-19T09:42:15;101693.62;;;17.24;51.72
57900;BME280;60605;53.716;19.940;2023-05-19T09:47:19;101689.62;;;17.06;51.10
57900;BME280;60605;53.716;19.940;2023-05-19T09:52:23;101689.52;;;16.92;52.14
57900;BME280;60605;53.716;19.940;2023-05-19T09:57:26;101689.08;;;17.02;52.49
57900;BME280;60605;53.716;19.940;2023-05-19T10:02:31;101688.31;;;17.18;52.30
57900;BME280;60605;53.716;19.940;2023-05-19T10:07:35;101686.48;;;17.23;51.82
57900;BME280;60605;53.716;19.940;2023-05-19T10:12:40;101689.02;;;17.28;51.98
57900;BME280;60605;53.716;19.940;2023-05-19T10:17:44;101681.42;;;17.37;52.29
57900;BME280;60605;53.716;19.940;2023-05-19T10:22:48;101683.27;;;17.37;52.14
57900;BME280;60605;53.716;19.940;2023-05-19T10:27:55;101688.59;;;17.21;52.63
57900;BME280;60605;53.716;19.940;2023-05-19T10:33:02;101690.47;;;16.98;53.20
57900;BME280;60605;53.716;19.940;2023-05-19T10:49:02;101682.64;;;16.43;56.65
57900;BME280;60605;53.716;19.940;2023-05-19T10:54:09;101684.57;;;16.31;57.49
57900;BME280;60605;53.716;19.940;2023-05-19T10:59:33;101688.31;;;15.96;59.33
57900;BME280;60605;53.716;19.940;2023-05-19T11:04:49;101688.90;;;15.70;60.87
57900;BME280;60605;53.716;19.940;2023-05-19T11:09:53;101692.69;;;15.54;62.07
57900;BME280;60605;53.716;19.940;2023-05-19T11:14:57;101697.20;;;15.38;63.34
57900;BME280;60605;53.716;19.940;2023-05-19T11:20:22;101693.28;;;15.20;64.14
57900;BME280;60605;53.716;19.940;2023-05-19T11:25:43;101690.79;;;15.13;65.23
57900;BME280;60605;53.716;19.940;2023-05-19T11:30:47;101688.55;;;15.21;65.14
57900;BME280;60605;53.716;19.940;2023-05-19T11:35:54;101679.06;;;15.31;65.17
57900;BME280;60605;53.716;19.940;2023-05-19T11:41:02;101670.23;;;15.48;65.58
57900;BME280;60605;53.716;19.940;2023-05-19T11:46:06;101676.19;;;15.70;65.56
57900;BME280;60605;53.716;19.940;2023-05-19T11:51:12;101680.36;;;15.82;65.84
57900;BME280;60605;53.716;19.940;2023-05-19T11:56:15;101686.84;;;15.90;65.89
57900;BME280;60605;53.716;19.940;2023-05-19T12:01:22;101693.33;;;15.84;65.40
57900;BME280;60605;53.716;19.940;2023-05-19T12:06:29;101691.33;;;15.75;65.86
57900;BME280;60605;53.716;19.940;2023-05-19T12:11:33;101688.10;;;15.60;66.68
57900;BME280;60605;53.716;19.940;2023-05-19T12:27:19;101682.98;;;15.08;66.38
57900;BME280;60605;53.716;19.940;2023-05-19T12:32:24;101690.45;;;14.77;67.75
57900;BME280;60605;53.716;19.940;2023-05-19T12:37:27;101694.05;;;14.53;69.47
57900;BME280;60605;53.716;19.940;2023-05-19T12:42:30;101693.71;;;14.39;70.41
57900;BME280;60605;53.716;19.940;2023-05-19T12:47:33;101693.34;;;14.43;70.93
57900;BME280;60605;53.716;19.940;2023-05-19T12:52:41;101693.11;;;14.53;71.09
57900;BME280;60605;53.716;19.940;2023-05-19T12:57:48;101695.72;;;14.62;70.81
57900;BME280;60605;53.716;19.940;2023-05-19T13:03:02;101698.25;;;14.54;70.97
57900;BME280;60605;53.716;19.940;2023-05-19T13:08:06;101694.68;;;14.39;71.62
57900;BME280;60605;53.716;19.940;2023-05-19T13:13:08;101689.52;;;14.15;72.16
57900;BME280;60605;53.716;19.940;2023-05-19T13:18:11;101678.79;;;13.94;73.32
57900;BME280;60605;53.716;19.940;2023-05-19T13:23:14;101663.91;;;13.88;73.81
57900;BME280;60605;53.716;19.940;2023-05-19T13:28:17;101660.02;;;14.09;73.41
57900;BME280;60605;53.716;19.940;2023-05-19T13:33:19;101656.35;;;14.30;71.69
57900;BME280;60605;53.716;19.940;2023-05-19T13:38:21;101651.73;;;14.33;70.28
57900;BME280;60605;53.716;19.940;2023-05-19T13:43:23;101649.55;;;14.23;69.49
57900;BME280;60605;53.716;19.940;2023-05-19T13:48:26;101657.15;;;14.07;69.82
57900;BME280;60605;53.716;19.940;2023-05-19T13:53:27;101661.25;;;13.90;70.06
57900;BME280;60605;53.716;19.940;2023-05-19T13:58:31;101664.40;;;13.67;70.56
57900;BME280;60605;53.716;19.940;2023-05-19T14:03:33;101662.98;;;13.50;71.40
57900;BME280;60605;53.716;19.940;2023-05-19T14:08:36;101667.50;;;13.35;72.18
57900;BME280;60605;53.716;19.940;2023-05-19T14:13:37;101670.58;;;13.25;72.80
57900;BME280;60605;53.716;19.940;2023-05-19T14:18:44;101664.27;;;13.23;73.19
57900;BME280;60605;53.716;19.940;2023-05-19T14:23:46;101653.90;;;13.37;73.47
57900;BME280;60605;53.716;19.940;2023-05-19T14:28:48;101643.86;;;13.60;73.02
57900;BME280;60605;53.716;19.940;2023-05-19T14:33:51;101632.14;;;13.88;72.56
57900;BME280;60605;53.716;19.940;2023-05-19T14:38:53;101631.30;;;14.12;72.07
57900;BME280;60605;53.716;19.940;2023-05-19T14:43:55;101637.46;;;14.31;71.33
57900;BME280;60605;53.716;19.940;2023-05-19T14:48:57;101636.77;;;14.46;70.68
57900;BME280;60605;53.716;19.940;2023-05-19T14:53:59;101644.83;;;14.62;69.95
57900;BME280;60605;53.716;19.940;2023-05-19T14:59:02;101646.44;;;14.64;69.51
57900;BME280;60605;53.716;19.940;2023-05-19T15:04:05;101642.58;;;14.61;69.50
57900;BME280;60605;53.716;19.940;2023-05-19T15:09:07;101646.00;;;14.49;69.44
57900;BME280;60605;53.716;19.940;2023-05-19T15:14:09;101642.02;;;14.35;70.05
57900;BME280;60605;53.716;19.940;2023-05-19T15:19:11;101636.98;;;14.23;70.42
57900;BME280;60605;53.716;19.940;2023-05-19T15:24:13;101629.86;;;14.09;70.71
57900;BME280;60605;53.716;19.940;2023-05-19T15:29:16;101626.90;;;14.09;70.88
57900;BME280;60605;53.716;19.940;2023-05-19T15:34:19;101624.41;;;14.19;70.84
57900;BME280;60605;53.716;19.940;2023-05-19T15:39:21;101625.32;;;14.36;70.89
57900;BME280;60605;53.716;19.940;2023-05-19T15:44:24;101619.11;;;14.52;70.48
57900;BME280;60605;53.716;19.940;2023-05-19T15:49:29;101617.30;;;14.51;70.42
57900;BME280;60605;53.716;19.940;2023-05-19T15:54:32;101616.08;;;14.41;70.82
57900;BME280;60605;53.716;19.940;2023-05-19T15:59:35;101617.23;;;14.32;71.38
57900;BME280;60605;53.716;19.940;2023-05-19T16:04:39;101613.71;;;14.22;71.61
57900;BME280;60605;53.716;19.940;2023-05-19T16:09:44;101617.07;;;14.11;71.74
57900;BME280;60605;53.716;19.940;2023-05-19T16:14:48;101614.08;;;14.02;72.31
57900;BME280;60605;53.716;19.940;2023-05-19T16:19:50;101616.98;;;13.95;72.59
57900;BME280;60605;53.716;19.940;2023-05-19T16:24:52;101617.33;;;13.87;72.92
57900;BME280;60605;53.716;19.940;2023-05-19T16:29:54;101616.59;;;13.81;72.53
57900;BME280;60605;53.716;19.940;2023-05-19T16:34:56;101617.20;;;13.75;72.80
57900;BME280;60605;53.716;19.940;2023-05-19T16:39:58;101614.82;;;13.71;73.16
57900;BME280;60605;53.716;19.940;2023-05-19T16:45:01;101618.45;;;13.67;73.21
57900;BME280;60605;53.716;19.940;2023-05-19T16:50:03;101620.95;;;13.62;73.10
57900;BME280;60605;53.716;19.940;2023-05-19T16:55:08;101615.05;;;13.55;73.27
57900;BME280;60605;53.716;19.940;2023-05-19T17:00:11;101613.02;;;13.50;73.64
57900;BME280;60605;53.716;19.940;2023-05-19T17:05:14;101613.52;;;13.45;73.88
57900;BME280;60605;53.716;19.940;2023-05-19T17:10:16;101617.10;;;13.39;74.02
57900;BME280;60605;53.716;19.940;2023-05-19T17:15:19;101615.89;;;13.33;74.27
57900;BME280;60605;53.716;19.940;2023-05-19T17:20:20;101612.44;;;13.27;74.66
57900;BME280;60605;53.716;19.940;2023-05-19T17:25:22;101607.44;;;13.23;75.13
57900;BME280;60605;53.716;19.940;2023-05-19T17:30:25;101610.67;;;13.19;75.44
57900;BME280;60605;53.716;19.940;2023-05-19T17:35:27;101612.69;;;13.14;75.91
57900;BME280;60605;53.716;19.940;2023-05-19T17:40:29;101614.07;;;13.09;76.28
57900;BME280;60605;53.716;19.940;2023-05-19T17:45:32;101612.52;;;13.04;76.60
57900;BME280;60605;53.716;19.940;2023-05-19T17:50:35;101614.62;;;12.99;76.94
57900;BME280;60605;53.716;19.940;2023-05-19T17:55:37;101614.33;;;12.94;77.19
57900;BME280;60605;53.716;19.940;2023-05-19T18:00:40;101618.67;;;12.89;77.53
57900;BME280;60605;53.716;19.940;2023-05-19T18:05:42;101617.70;;;12.86;77.77
57900;BME280;60605;53.716;19.940;2023-05-19T18:10:46;101621.54;;;12.83;77.92
57900;BME280;60605;53.716;19.940;2023-05-19T18:15:50;101616.70;;;12.79;78.15
57900;BME280;60605;53.716;19.940;2023-05-19T18:20:53;101617.92;;;12.76;78.39
57900;BME280;60605;53.716;19.940;2023-05-19T18:25:55;101617.92;;;12.72;78.63
57900;BME280;60605;53.716;19.940;2023-05-19T18:31:03;101621.14;;;12.68;78.86
57900;BME280;60605;53.716;19.940;2023-05-19T18:36:06;101618.80;;;12.64;79.06
57900;BME280;60605;53.716;19.940;2023-05-19T18:41:08;101624.84;;;12.60;79.42
57900;BME280;60605;53.716;19.940;2023-05-19T18:46:10;101625.84;;;12.57;79.70
57900;BME280;60605;53.716;19.940;2023-05-19T18:51:14;101626.54;;;12.53;79.96
57900;BME280;60605;53.716;19.940;2023-05-19T18:56:26;101627.36;;;12.50;80.10
57900;BME280;60605;53.716;19.940;2023-05-19T19:01:28;101629.73;;;12.47;80.32
57900;BME280;60605;53.716;19.940;2023-05-19T19:06:31;101630.88;;;12.44;80.81
57900;BME280;60605;53.716;19.940;2023-05-19T19:11:34;101632.11;;;12.40;81.41
57900;BME280;60605;53.716;19.940;2023-05-19T19:16:36;101633.77;;;12.37;81.58
57900;BME280;60605;53.716;19.940;2023-05-19T19:21:39;101636.25;;;12.36;81.79
57900;BME280;60605;53.716;19.940;2023-05-19T19:26:41;101635.55;;;12.33;82.24
57900;BME280;60605;53.716;19.940;2023-05-19T19:31:43;101640.06;;;12.31;83.01
57900;BME280;60605;53.716;19.940;2023-05-19T19:36:47;101641.34;;;12.29;83.39
57900;BME280;60605;53.716;19.940;2023-05-19T19:41:50;101642.44;;;12.26;83.76
57900;BME280;60605;53.716;19.940;2023-05-19T19:46:52;101642.91;;;12.25;84.34
57900;BME280;60605;53.716;19.940;2023-05-19T19:51:55;101647.17;;;12.23;84.66
57900;BME280;60605;53.716;19.940;2023-05-19T19:56:58;101647.92;;;12.21;85.66
57900;BME280;60605;53.716;19.940;2023-05-19T20:02:01;101649.52;;;12.19;86.03
57900;BME280;60605;53.716;19.940;2023-05-19T20:07:03;101657.85;;;12.18;86.22
57900;BME280;60605;53.716;19.940;2023-05-19T20:12:06;101656.16;;;12.17;86.65
57900;BME280;60605;53.716;19.940;2023-05-19T20:17:09;101648.73;;;12.16;87.05
57900;BME280;60605;53.716;19.940;2023-05-19T20:22:12;101651.70;;;12.15;87.51
57900;BME280;60605;53.716;19.940;2023-05-19T20:27:14;101652.70;;;12.13;87.81
57900;BME280;60605;53.716;19.940;2023-05-19T20:32:17;101658.16;;;12.12;87.88
57900;BME280;60605;53.716;19.940;2023-05-19T20:37:19;101658.77;;;12.11;88.12
57900;BME280;60605;53.716;19.940;2023-05-19T20:42:23;101656.00;;;12.10;88.34
57900;BME280;60605;53.716;19.940;2023-05-19T20:47:25;101653.26;;;12.09;88.42
57900;BME280;60605;53.716;19.940;2023-05-19T20:52:29;101651.06;;;12.07;88.55
57900;BME280;60605;53.716;19.940;2023-05-19T20:57:33;101648.98;;;12.06;88.81
57900;BME280;60605;53.716;19.940;2023-05-19T21:02:35;101642.89;;;12.04;89.37
57900;BME280;60605;53.716;19.940;2023-05-19T21:07:38;101642.70;;;12.02;89.44
57900;BME280;60605;53.716;19.940;2023-05-19T21:12:40;101640.54;;;12.00;89.52
57900;BME280;60605;53.716;19.940;2023-05-19T21:17:43;101642.02;;;12.00;89.56
57900;BME280;60605;53.716;19.940;2023-05-19T21:22:46;101644.97;;;11.99;89.63
57900;BME280;60605;53.716;19.940;2023-05-19T21:27:49;101642.92;;;11.98;90.03
57900;BME280;60605;53.716;19.940;2023-05-19T21:32:53;101642.13;;;11.97;90.06
57900;BME280;60605;53.716;19.940;2023-05-19T21:37:55;101644.48;;;11.96;90.01
57900;BME280;60605;53.716;19.940;2023-05-19T21:42:57;101646.47;;;11.96;90.23
57900;BME280;60605;53.716;19.940;2023-05-19T21:47:59;101648.02;;;11.95;90.29
57900;BME280;60605;53.716;19.940;2023-05-19T21:53:02;101649.36;;;11.94;90.19
57900;BME280;60605;53.716;19.940;2023-05-19T21:58:04;101644.95;;;11.93;90.24
57900;BME280;60605;53.716;19.940;2023-05-19T22:03:06;101647.84;;;11.92;90.55
57900;BME280;60605;53.716;19.940;2023-05-19T22:08:09;101647.39;;;11.91;90.67
57900;BME280;60605;53.716;19.940;2023-05-19T22:13:11;101643.52;;;11.91;90.87
57900;BME280;60605;53.716;19.940;2023-05-19T22:18:13;101642.07;;;11.91;90.96
57900;BME280;60605;53.716;19.940;2023-05-19T22:23:15;101637.64;;;11.90;90.97
57900;BME280;60605;53.716;19.940;2023-05-19T22:28:17;101635.56;;;11.90;91.06
57900;BME280;60605;53.716;19.940;2023-05-19T22:33:19;101641.98;;;11.90;90.83
57900;BME280;60605;53.716;19.940;2023-05-19T22:38:21;101647.23;;;11.89;91.01
57900;BME280;60605;53.716;19.940;2023-05-19T22:43:23;101647.60;;;11.89;91.03
57900;BME280;60605;53.716;19.940;2023-05-19T22:48:25;101647.13;;;11.88;90.95
57900;BME280;60605;53.716;19.940;2023-05-19T22:53:27;101648.94;;;11.88;90.71
57900;BME280;60605;53.716;19.940;2023-05-19T22:58:29;101652.71;;;11.88;90.66
57900;BME280;60605;53.716;19.940;2023-05-19T23:03:31;101651.16;;;11.87;90.52
57900;BME280;60605;53.716;19.940;2023-05-19T23:08:35;101646.50;;;11.87;90.47
57900;BME280;60605;53.716;19.940;2023-05-19T23:13:37;101646.30;;;11.88;90.28
57900;BME280;60605;53.716;19.940;2023-05-19T23:18:39;101641.48;;;11.87;90.26
57900;BME280;60605;53.716;19.940;2023-05-19T23:23:41;101638.98;;;11.87;90.15
57900;BME280;60605;53.716;19.940;2023-05-19T23:28:43;101637.58;;;11.87;89.95
57900;BME280;60605;53.716;19.940;2023-05-19T23:33:45;101638.24;;;11.87;89.82
57900;BME280;60605;53.716;19.940;2023-05-19T23:38:47;101641.71;;;11.87;89.77
57900;BME280;60605;53.716;19.940;2023-05-19T23:43:48;101640.15;;;11.86;89.75
57900;BME280;60605;53.716;19.940;2023-05-19T23:48:50;101642.30;;;11.86;89.62
57900;BME280;60605;53.716;19.940;2023-05-19T23:53:52;101641.67;;;11.85;89.62
57900;BME280;60605;53.716;19.940;2023-05-19T23:58:54;101635.98;;;11.84;89.57
